Terminal Aerodrome Forecast
Issued by NWS

Home | Current Version | Previous Version | Text Only | Print | Product List | Glossary On
Versions: 1 2 3 4 5 6 7 8 9 10 11 12 13 14 15 16 17 18 19
975
FTUS44 KLZK 291730
TAFBPK
TAF
KBPK 291730Z 2918/3018 14012G20KT P6SM BKN110
     FM292200 16012G20KT P6SM SCT025 BKN050
      TEMPO 2922/3002 VRB15G30KT 2SM TSRA BR OVC010CB
     FM300200 16012G20KT P6SM OVC020
     FM301400 22012KT P6SM OVC035=

USA.gov is the U.S. government's official web portal to all federal, state and local government web resources and services.